In Rescue
 
Open Full Screen Window  High Contrast Mode
Wind Gusting 27 knots
22
March 01, 2024 3:41 PM CST
Weather Information
Wind Direction
  200 °
Wind Speed
  22 kt (25 mph)
Wind Gust
  27 kt (31 mph)
Altimeter
29.83 in
Visibility
10 SM
Temperature
13° C
55° F
Dewpoint
01° C
34° F
Humidity
44%
Sky Condition
Clear
VFR

METAR KAUM 012141Z AUTO 20022G27KT 10SM CLR 13/01 A2983 RMK AO2

FAA Disclaimer: The data displayed is for advisory purposes only and is not to be used for flight planning or operations.